This is the latest recevied weather packets stored in our database for station/object ON6OO-13. If no packets are shown the sender has not sent any weather packets the latest 10 day(s).
| Time | Temp. | Humidity | Pressure | Rain* | Wind** | Luminosity | Snow |
|---|---|---|---|---|---|---|---|
| 1777770278 | 13.33° C | 98% | 1004.4 hPa | 0 mm | - | - | - |
| 1777769366 | 13.33° C | 98% | 1004.4 hPa | 0 mm | - | - | - |
| 1777768454 | 13.33° C | 98% | 1004.7 hPa | 0 mm | - | - | - |
| 1777767542 | 13.89° C | 98% | 1004.7 hPa | 0 mm | - | - | - |
| 1777766630 | 13.89° C | 98% | 1005.4 hPa | 0 mm | - | - | - |
| 1777765718 | 13.89° C | 98% | 1005 hPa | 0 mm | - | - | - |
| 1777764806 | 13.89° C | 98% | 1005.4 hPa | 0 mm | - | - | - |
| 1777763894 | 13.89° C | 98% | 1005.4 hPa | 0 mm | - | - | - |
| 1777762982 | 13.89° C | 98% | 1005.7 hPa | 0 mm | - | - | - |
| 1777762069 | 13.89° C | 98% | 1005 hPa | 0 mm | - | - | - |
| 1777761157 | 13.89° C | 98% | 1005.4 hPa | 0 mm | - | - | - |
| 1777760245 | 13.89° C | 97% | 1005 hPa | 0 mm | - | - | - |
| 1777759333 | 13.89° C | 97% | 1005.4 hPa | 0 mm | - | - | - |
| 1777758422 | 13.89° C | 96% | 1005.4 hPa | 0 mm | - | - | - |
| 1777757511 | 14.44° C | 95% | 1005.4 hPa | 0 mm | - | - | - |
| 1777756598 | 15° C | 93% | 1005.4 hPa | 0 mm | - | - | - |
| 1777755686 | 15.56° C | 91% | 1005 hPa | 0 mm | - | - | - |
| 1777754774 | 17.22° C | 84% | 1006.7 hPa | 0 mm | - | - | - |
| 1777753862 | 18.33° C | 78% | 1006.4 hPa | 0 mm | - | - | - |
| 1777752950 | 20° C | 76% | 1006.4 hPa | 0 mm | - | - | - |
| 1777752038 | 20° C | 71% | 1005.4 hPa | 0 mm | - | - | - |
| 1777751126 | 20° C | 69% | 1005 hPa | 0 mm | - | - | - |
| 1777750214 | 20° C | 72% | 1005.4 hPa | 0 mm | - | - | - |
| 1777749302 | 21.11° C | 70% | 1005 hPa | 0 mm | - | - | - |
| 1777748390 | 21.67° C | 66% | 1004.7 hPa | 0 mm | - | - | - |
* Rain latest hour (hover to see other rain measurements)
** Current wind speed in m/s (hover to see current wind gust speed)